Time;durP1;ratioP1;P1;durP2;ratioP2;P2;SDS_P1;SDS_P2;PMS_P1;PMS_P2;Temp;Humidity;BMP_temperature;BMP_pressure;BME280_temperature;BME280_humidity;BME280_pressure;Samples;Min_cycle;Max_cycle;Signal;HPM_P1;HPM_P2
2024/03/27 00:00:44;;;;;;;11.32;7.13;;;9.90;99.90;;;;;;5041065;28;20203;-66
2024/03/27 00:03:09;;;;;;;10.23;6.93;;;9.90;99.90;;;;;;5041077;28;20278;-67
2024/03/27 00:05:36;;;;;;;10.48;6.68;;;9.90;99.90;;;;;;5040626;28;21302;-67
2024/03/27 00:08:02;;;;;;;16.50;6.95;;;9.90;99.90;;;;;;5040754;28;20199;-66
2024/03/27 00:10:27;;;;;;;11.00;7.63;;;9.90;99.90;;;;;;5041151;28;20201;-67
2024/03/27 00:12:53;;;;;;;9.75;6.82;;;9.90;99.90;;;;;;5041038;28;20202;-64
2024/03/27 00:15:19;;;;;;;12.77;7.13;;;9.90;99.90;;;;;;5041117;28;20271;-67
2024/03/27 00:17:45;;;;;;;9.90;6.75;;;9.90;99.90;;;;;;5040209;28;20249;-64
2024/03/27 00:20:11;;;;;;;12.30;7.45;;;9.90;99.90;;;;;;5041273;28;20592;-65
2024/03/27 00:22:37;;;;;;;10.75;7.47;;;9.80;99.90;;;;;;5041142;28;20199;-63
2024/03/27 00:25:03;;;;;;;11.02;7.68;;;9.80;99.90;;;;;;5040718;28;20215;-67
2024/03/27 00:27:29;;;;;;;12.55;7.72;;;9.80;99.90;;;;;;5040910;28;20183;-66
2024/03/27 00:29:55;;;;;;;9.70;7.07;;;9.70;99.90;;;;;;5040975;28;20245;-67
2024/03/27 00:32:21;;;;;;;16.63;7.63;;;9.60;99.90;;;;;;5040674;28;20196;-68
2024/03/27 00:34:46;;;;;;;10.68;7.72;;;9.60;99.90;;;;;;5040978;28;20179;-66
2024/03/27 00:37:12;;;;;;;16.67;8.10;;;9.60;99.90;;;;;;5040555;28;20294;-65
2024/03/27 00:39:38;;;;;;;11.70;8.05;;;9.50;99.90;;;;;;5040930;28;20610;-67
2024/03/27 00:42:04;;;;;;;12.38;7.70;;;9.50;99.90;;;;;;5040258;28;20225;-66
2024/03/27 00:44:30;;;;;;;10.80;8.15;;;9.40;99.90;;;;;;5041905;28;20243;-64
2024/03/27 00:46:55;;;;;;;12.18;8.05;;;9.30;99.90;;;;;;5044420;28;20605;-68
2024/03/27 00:49:21;;;;;;;12.05;8.00;;;9.30;99.90;;;;;;5044154;28;20183;-66
2024/03/27 00:51:47;;;;;;;13.50;8.10;;;9.20;99.90;;;;;;5044185;28;20656;-65
2024/03/27 00:54:12;;;;;;;12.57;8.77;;;9.20;99.90;;;;;;5044179;28;20256;-66
2024/03/27 00:56:38;;;;;;;12.73;7.75;;;9.20;99.90;;;;;;5043719;28;20202;-66
2024/03/27 00:59:04;;;;;;;12.38;7.80;;;9.10;99.90;;;;;;5044272;28;20277;-65
2024/03/27 01:01:30;;;;;;;12.38;8.30;;;9.00;99.90;;;;;;5043994;28;20210;-65
2024/03/27 01:03:56;;;;;;;13.60;7.53;;;9.00;99.90;;;;;;5044364;28;20207;-65
2024/03/27 01:06:22;;;;;;;11.23;7.65;;;9.00;99.90;;;;;;5043389;28;20683;-66
2024/03/27 01:08:48;;;;;;;14.55;7.28;;;9.00;99.90;;;;;;5044068;28;20179;-66
2024/03/27 01:11:14;;;;;;;12.30;7.88;;;9.00;99.90;;;;;;5044083;28;20277;-66
2024/03/27 01:13:40;;;;;;;10.18;8.00;;;9.00;99.90;;;;;;5042526;28;20277;-65
2024/03/27 01:16:06;;;;;;;12.07;7.70;;;8.90;99.90;;;;;;5043584;28;20245;-67
2024/03/27 01:18:32;;;;;;;10.52;7.28;;;8.90;99.90;;;;;;5043592;28;20721;-66
2024/03/27 01:20:57;;;;;;;11.48;7.57;;;8.90;99.90;;;;;;5043689;28;20195;-66
2024/03/27 01:23:23;;;;;;;11.98;7.72;;;8.80;99.90;;;;;;5044207;28;20287;-66
2024/03/27 01:25:49;;;;;;;15.20;8.68;;;8.80;99.90;;;;;;5058132;28;20218;-66
2024/03/27 01:28:15;;;;;;;10.85;7.68;;;8.80;99.90;;;;;;5044092;28;20195;-65
2024/03/27 01:30:40;;;;;;;11.48;7.97;;;8.70;99.90;;;;;;5043263;28;20187;-67
2024/03/27 01:33:07;;;;;;;11.73;7.95;;;8.70;99.90;;;;;;5043747;28;20202;-66
2024/03/27 01:35:32;;;;;;;11.32;7.97;;;8.70;99.90;;;;;;5042957;28;20561;-66
2024/03/27 01:37:58;;;;;;;12.77;8.20;;;8.60;99.90;;;;;;5042472;28;20191;-64
2024/03/27 01:40:24;;;;;;;11.32;8.05;;;8.60;99.90;;;;;;5042036;28;20206;-66
2024/03/27 01:42:59;;;;;;;13.95;7.72;;;8.60;99.90;;;;;;5042104;28;20206;-65
2024/03/27 01:45:25;;;;;;;10.45;7.30;;;8.60;99.90;;;;;;5043578;28;20797;-67
2024/03/27 01:47:51;;;;;;;10.95;7.15;;;8.60;99.90;;;;;;5042923;28;20191;-65
2024/03/27 01:50:17;;;;;;;11.20;7.68;;;8.60;99.90;;;;;;5039409;28;20186;-66
2024/03/27 01:52:44;;;;;;;10.88;7.32;;;8.60;99.90;;;;;;5043184;28;20247;-67
2024/03/27 01:55:11;;;;;;;11.20;7.75;;;8.60;99.90;;;;;;5042986;28;20252;-65
2024/03/27 01:57:38;;;;;;;11.43;7.50;;;8.60;99.90;;;;;;5057189;28;20206;-66
2024/03/27 02:00:05;;;;;;;13.48;7.43;;;8.60;99.90;;;;;;5043323;28;20971;-67
2024/03/27 02:02:39;;;;;;;13.32;7.57;;;8.60;99.90;;;;;;5041832;28;20190;-66
2024/03/27 02:05:07;;;;;;;9.55;7.47;;;8.60;99.90;;;;;;5043079;28;20202;-63
2024/03/27 02:07:33;;;;;;;11.63;7.55;;;8.60;99.90;;;;;;5043095;28;20194;-67
2024/03/27 02:10:00;;;;;;;11.02;7.80;;;8.50;99.90;;;;;;5042768;28;20187;-68
2024/03/27 02:12:26;;;;;;;11.90;7.65;;;8.50;99.90;;;;;;5043170;28;20199;-66
2024/03/27 02:14:51;;;;;;;10.60;7.20;;;8.50;99.90;;;;;;5042985;28;20183;-68
2024/03/27 02:17:17;;;;;;;15.02;8.30;;;8.40;99.90;;;;;;5042749;28;20726;-66
2024/03/27 02:19:43;;;;;;;11.07;7.68;;;8.40;99.90;;;;;;5042017;28;20199;-64
2024/03/27 02:22:09;;;;;;;11.82;7.88;;;8.40;99.90;;;;;;5057862;28;20250;-67
2024/03/27 02:24:48;;;;;;;11.48;7.28;;;8.40;99.90;;;;;;5042147;28;20675;-67
2024/03/27 02:27:14;;;;;;;11.57;7.68;;;8.40;99.90;;;;;;5042873;28;20179;-65
2024/03/27 02:29:39;;;;;;;15.55;7.28;;;8.40;99.90;;;;;;5041854;28;20187;-65
2024/03/27 02:32:05;;;;;;;11.00;7.47;;;8.40;99.90;;;;;;5042142;28;20609;-67
2024/03/27 02:34:31;;;;;;;12.57;7.43;;;8.30;99.90;;;;;;5042598;28;20199;-67
2024/03/27 02:36:57;;;;;;;14.10;7.43;;;8.30;99.90;;;;;;5042471;28;20199;-66
2024/03/27 02:39:22;;;;;;;12.02;7.70;;;8.30;99.90;;;;;;5042095;28;20187;-68
2024/03/27 02:41:48;;;;;;;11.50;7.55;;;8.30;99.90;;;;;;5042090;28;20183;-66
2024/03/27 02:44:14;;;;;;;11.07;7.22;;;8.30;99.90;;;;;;5041881;28;20214;-66
2024/03/27 02:46:39;;;;;;;12.18;7.82;;;8.30;99.90;;;;;;5042535;28;20191;-65
2024/03/27 02:49:05;;;;;;;12.30;7.32;;;8.40;99.90;;;;;;5042244;28;20206;-68
2024/03/27 02:51:31;;;;;;;10.15;7.20;;;8.40;99.90;;;;;;5041603;28;20240;-66
2024/03/27 02:53:56;;;;;;;11.57;7.65;;;8.40;99.90;;;;;;5042015;28;20188;-65
2024/03/27 02:56:22;;;;;;;11.75;7.75;;;8.40;99.90;;;;;;5041931;28;20187;-68
2024/03/27 02:58:48;;;;;;;10.75;7.65;;;8.40;99.90;;;;;;5042029;28;20199;-66
2024/03/27 03:01:14;;;;;;;12.15;8.00;;;8.40;99.90;;;;;;5041624;28;20202;-66
2024/03/27 03:03:40;;;;;;;14.50;8.48;;;8.40;99.90;;;;;;5041701;28;20203;-70
2024/03/27 03:06:06;;;;;;;12.23;7.20;;;8.30;99.90;;;;;;5039477;28;20219;-65
2024/03/27 03:08:31;;;;;;;9.63;7.68;;;8.30;99.90;;;;;;5040955;28;20530;-64
2024/03/27 03:10:57;;;;;;;10.75;7.97;;;8.30;99.90;;;;;;5039974;28;20191;-69
2024/03/27 03:13:23;;;;;;;11.15;8.30;;;8.30;99.90;;;;;;5041981;28;20183;-65
2024/03/27 03:15:49;;;;;;;13.07;8.18;;;8.30;99.90;;;;;;5041101;28;20195;-65
2024/03/27 03:18:15;;;;;;;14.55;7.90;;;8.20;99.90;;;;;;5041658;28;20321;-66
2024/03/27 03:20:41;;;;;;;12.20;7.78;;;8.20;99.90;;;;;;5041859;28;20205;-67
2024/03/27 03:23:06;;;;;;;12.15;7.70;;;8.20;99.90;;;;;;5040496;28;20199;-66
2024/03/27 03:25:32;;;;;;;12.63;8.07;;;8.10;99.90;;;;;;5040033;28;20211;-64
2024/03/27 03:27:58;;;;;;;11.98;7.88;;;8.10;99.90;;;;;;5041315;28;20218;-65
2024/03/27 03:30:23;;;;;;;10.70;7.97;;;8.10;99.90;;;;;;5041619;28;20792;-68
2024/03/27 03:32:50;;;;;;;11.40;8.20;;;8.10;99.90;;;;;;5039937;28;20200;-66
2024/03/27 03:35:15;;;;;;;16.33;7.85;;;8.10;99.90;;;;;;5041648;28;20283;-66
2024/03/27 03:37:41;;;;;;;11.57;8.15;;;8.00;99.90;;;;;;5039588;28;20274;-69
2024/03/27 03:40:08;;;;;;;15.88;8.13;;;8.00;99.90;;;;;;5039735;28;21051;-68
2024/03/27 03:42:34;;;;;;;16.65;8.15;;;8.00;99.90;;;;;;5041469;28;20203;-68
2024/03/27 03:45:00;;;;;;;13.65;9.63;;;8.00;99.90;;;;;;5039379;28;20207;-69
2024/03/27 03:47:26;;;;;;;13.18;9.10;;;8.10;99.90;;;;;;5041374;28;20179;-66
2024/03/27 03:49:52;;;;;;;14.55;9.63;;;8.10;99.90;;;;;;5041409;28;20195;-68
2024/03/27 03:52:17;;;;;;;13.15;8.38;;;8.10;99.90;;;;;;5056890;28;20625;-67
2024/03/27 03:54:43;;;;;;;14.30;9.25;;;8.10;99.90;;;;;;5041272;28;20947;-68
2024/03/27 03:57:08;;;;;;;13.00;9.55;;;8.10;99.90;;;;;;5041096;28;20203;-68
2024/03/27 03:59:34;;;;;;;16.35;9.95;;;8.10;99.90;;;;;;5039990;28;20282;-67
2024/03/27 04:02:00;;;;;;;14.45;9.38;;;8.20;99.90;;;;;;5041290;28;20252;-65
2024/03/27 04:04:26;;;;;;;14.77;9.98;;;8.10;99.90;;;;;;5041434;28;20778;-68
2024/03/27 04:06:51;;;;;;;13.70;9.50;;;8.20;99.90;;;;;;5055444;28;20664;-68
2024/03/27 04:09:17;;;;;;;13.90;9.32;;;8.10;99.90;;;;;;5037616;28;20191;-70
2024/03/27 04:11:43;;;;;;;12.50;9.30;;;8.20;99.90;;;;;;5041293;28;20270;-68
2024/03/27 04:14:09;;;;;;;14.60;9.00;;;8.20;99.90;;;;;;5041070;28;20274;-67
2024/03/27 04:16:34;;;;;;;14.02;8.35;;;8.20;99.90;;;;;;5023368;28;20414;-71
2024/03/27 04:19:00;;;;;;;14.68;8.27;;;8.20;99.90;;;;;;5039547;28;20230;-69
2024/03/27 04:21:26;;;;;;;11.52;8.23;;;8.30;99.90;;;;;;5043418;28;20333;-66
2024/03/27 04:23:51;;;;;;;14.15;7.45;;;8.30;99.90;;;;;;5044234;28;20208;-64
2024/03/27 04:26:17;;;;;;;13.45;8.73;;;8.30;99.90;;;;;;5044910;28;20195;-65
2024/03/27 04:28:43;;;;;;;14.30;7.68;;;8.30;99.90;;;;;;5044568;28;20215;-65
2024/03/27 04:31:08;;;;;;;11.95;8.05;;;8.40;99.90;;;;;;5043351;28;20199;-64
2024/03/27 04:33:34;;;;;;;12.38;7.93;;;8.40;99.90;;;;;;5026610;28;20564;-67
2024/03/27 04:36:01;;;;;;;11.07;8.10;;;8.40;99.90;;;;;;5044546;28;20187;-65
2024/03/27 04:38:26;;;;;;;13.05;8.23;;;8.50;99.90;;;;;;5042371;28;20206;-65
2024/03/27 04:40:52;;;;;;;13.65;8.93;;;8.50;99.90;;;;;;5044627;28;20191;-66
2024/03/27 04:43:18;;;;;;;15.30;8.70;;;8.50;99.90;;;;;;5044372;28;20195;-69
2024/03/27 04:45:45;;;;;;;14.75;8.65;;;8.60;99.90;;;;;;5044614;28;20214;-69
2024/03/27 04:48:11;;;;;;;12.80;8.00;;;8.60;99.90;;;;;;5059557;28;20202;-68
2024/03/27 04:50:36;;;;;;;13.65;7.78;;;8.70;99.90;;;;;;5043721;28;20191;-69
2024/03/27 04:53:02;;;;;;;11.70;8.38;;;8.70;99.90;;;;;;5044469;28;20228;-68
2024/03/27 04:55:28;;;;;;;12.32;7.25;;;8.70;99.90;;;;;;5044411;28;20187;-68
2024/03/27 04:57:54;;;;;;;11.90;8.05;;;8.80;99.90;;;;;;5044279;28;20196;-68
2024/03/27 05:00:19;;;;;;;16.00;8.57;;;8.80;99.90;;;;;;5042269;28;20341;-68
2024/03/27 05:02:46;;;;;;;11.65;7.97;;;8.90;99.90;;;;;;5042462;28;20659;-68
2024/03/27 05:05:11;;;;;;;20.92;8.52;;;8.90;99.90;;;;;;5044251;28;20211;-67
2024/03/27 05:07:37;;;;;;;13.20;8.40;;;8.90;99.90;;;;;;5043989;28;20191;-67
2024/03/27 05:10:03;;;;;;;12.27;8.50;;;8.90;99.90;;;;;;5043436;28;20249;-69
2024/03/27 05:12:29;;;;;;;14.13;8.95;;;9.00;99.90;;;;;;5043774;28;20191;-70
2024/03/27 05:14:55;;;;;;;13.75;8.75;;;9.00;99.90;;;;;;5042758;28;20183;-72
2024/03/27 05:17:21;;;;;;;10.98;7.85;;;9.00;99.90;;;;;;5042610;28;21395;-70
2024/03/27 05:19:49;;;;;;;13.40;8.43;;;9.00;99.90;;;;;;5025597;28;20298;-71
2024/03/27 05:22:15;;;;;;;13.32;8.48;;;9.00;99.90;;;;;;5042350;28;20208;-72
2024/03/27 05:24:42;;;;;;;14.15;8.52;;;9.00;99.90;;;;;;5042831;28;20298;-70
2024/03/27 05:27:08;;;;;;;15.35;7.75;;;9.10;99.90;;;;;;5043768;28;20225;-70
2024/03/27 05:29:35;;;;;;;15.38;7.55;;;9.10;99.90;;;;;;5042215;28;20491;-71
2024/03/27 05:32:01;;;;;;;14.23;8.02;;;9.10;99.90;;;;;;5039775;28;20191;-71
2024/03/27 05:34:27;;;;;;;11.40;8.07;;;9.20;99.90;;;;;;5043965;28;20183;-70
2024/03/27 05:36:53;;;;;;;10.07;7.38;;;9.20;99.90;;;;;;5043111;28;20184;-71
2024/03/27 05:39:19;;;;;;;13.23;7.88;;;9.20;99.90;;;;;;5043583;28;20183;-71
2024/03/27 05:41:45;;;;;;;14.27;7.93;;;9.20;99.90;;;;;;5041498;28;20556;-72
2024/03/27 05:44:11;;;;;;;11.05;7.55;;;9.20;99.90;;;;;;5042392;28;20197;-72
2024/03/27 05:46:37;;;;;;;13.38;8.02;;;9.20;99.90;;;;;;5043159;28;20195;-72
2024/03/27 05:49:04;;;;;;;14.15;8.00;;;9.30;99.90;;;;;;5042659;28;20183;-72
2024/03/27 05:51:31;;;;;;;11.80;7.82;;;9.30;99.90;;;;;;5042280;28;20180;-70
2024/03/27 05:53:57;;;;;;;17.52;8.10;;;9.30;99.90;;;;;;5042322;28;20611;-72
2024/03/27 05:56:24;;;;;;;14.95;7.95;;;9.30;99.90;;;;;;5043136;28;20711;-68
2024/03/27 05:58:50;;;;;;;13.75;7.75;;;9.40;99.90;;;;;;5042344;28;20197;-67
2024/03/27 06:01:16;;;;;;;11.95;8.15;;;9.40;99.90;;;;;;5042343;28;20215;-67
2024/03/27 06:03:52;;;;;;;15.07;7.45;;;9.40;99.90;;;;;;5041933;28;20245;-71
2024/03/27 06:06:18;;;;;;;11.32;7.80;;;9.40;99.90;;;;;;5056757;28;20211;-64
2024/03/27 06:08:47;;;;;;;11.73;7.90;;;9.40;99.90;;;;;;5042155;28;20187;-70
2024/03/27 06:11:13;;;;;;;11.13;8.20;;;9.50;99.90;;;;;;5041982;28;20195;-67
2024/03/27 06:13:38;;;;;;;13.70;8.18;;;9.50;99.90;;;;;;5041185;28;20189;-67
2024/03/27 06:16:05;;;;;;;16.10;8.50;;;9.50;99.90;;;;;;5041088;28;20206;-69
2024/03/27 06:18:31;;;;;;;13.82;8.30;;;9.50;99.90;;;;;;5042115;28;20224;-63
2024/03/27 06:20:56;;;;;;;10.95;8.23;;;9.50;99.90;;;;;;5041790;28;20191;-70
2024/03/27 06:23:22;;;;;;;12.65;7.95;;;9.60;99.90;;;;;;5042288;28;20195;-65
2024/03/27 06:25:58;;;;;;;13.15;7.97;;;9.60;99.90;;;;;;5041076;28;20225;-65
2024/03/27 06:28:25;;;;;;;13.75;7.95;;;9.60;99.90;;;;;;5042064;28;20195;-69
2024/03/27 06:30:57;;;;;;;13.50;7.60;;;9.70;99.90;;;;;;5041127;28;20175;-65
2024/03/27 06:33:24;;;;;;;11.57;7.65;;;9.70;99.90;;;;;;5024603;28;20194;-67
2024/03/27 06:35:51;;;;;;;15.02;8.30;;;9.70;99.90;;;;;;5057428;28;20194;-65
2024/03/27 06:38:17;;;;;;;10.57;7.85;;;9.80;99.90;;;;;;5041804;28;20203;-67
2024/03/27 06:40:43;;;;;;;14.48;8.40;;;9.80;99.90;;;;;;5042432;28;20195;-68
2024/03/27 06:43:09;;;;;;;16.45;7.82;;;9.90;99.90;;;;;;5042170;28;20203;-66
2024/03/27 06:45:38;;;;;;;15.85;7.63;;;9.90;99.90;;;;;;5041821;28;20259;-66
2024/03/27 06:48:04;;;;;;;13.07;8.63;;;9.90;99.90;;;;;;5041946;28;21049;-65
2024/03/27 06:50:30;;;;;;;11.82;8.13;;;10.00;99.90;;;;;;5042233;28;20198;-66
2024/03/27 06:52:56;;;;;;;13.88;8.30;;;10.00;99.90;;;;;;5040690;28;20187;-67
2024/03/27 06:55:22;;;;;;;12.15;8.77;;;10.10;99.90;;;;;;5042094;28;20195;-67
2024/03/27 06:57:47;;;;;;;26.05;15.05;;;10.20;99.90;;;;;;5041505;28;20187;-69
2024/03/27 07:00:14;;;;;;;14.93;9.20;;;10.30;99.90;;;;;;5023713;28;20655;-67
2024/03/27 07:02:40;;;;;;;18.15;10.48;;;10.30;99.90;;;;;;5039983;28;20199;-66
2024/03/27 07:05:07;;;;;;;18.42;9.73;;;10.40;99.90;;;;;;5040251;28;20203;-67
2024/03/27 07:07:33;;;;;;;20.90;9.10;;;10.50;99.90;;;;;;5054915;28;20229;-68
2024/03/27 07:09:59;;;;;;;18.45;9.43;;;10.60;99.90;;;;;;5041146;28;20179;-70
2024/03/27 07:12:25;;;;;;;17.83;9.20;;;10.70;99.90;;;;;;5040482;28;20240;-66
2024/03/27 07:14:50;;;;;;;15.55;9.95;;;10.80;99.90;;;;;;5054801;28;20206;-68
2024/03/27 07:17:17;;;;;;;22.05;9.00;;;10.90;99.90;;;;;;5040006;28;20246;-65
2024/03/27 07:19:47;;;;;;;16.83;8.73;;;10.90;99.90;;;;;;5039772;28;20705;-66
2024/03/27 07:22:14;;;;;;;10.73;7.55;;;11.00;99.90;;;;;;5039967;28;20629;-70
2024/03/27 07:24:40;;;;;;;15.13;8.38;;;11.10;99.90;;;;;;5039823;28;20243;-67
2024/03/27 07:27:06;;;;;;;15.40;8.07;;;11.10;99.90;;;;;;5040600;28;20218;-66
2024/03/27 07:29:32;;;;;;;13.60;7.53;;;11.20;99.90;;;;;;5041099;28;20213;-67
2024/03/27 07:31:58;;;;;;;10.70;7.30;;;11.20;99.90;;;;;;5038950;28;20805;-69
2024/03/27 07:34:23;;;;;;;17.40;9.23;;;11.30;99.90;;;;;;5040846;28;20274;-66
2024/03/27 07:36:49;;;;;;;15.45;7.85;;;11.50;99.90;;;;;;5039852;28;20191;-66
2024/03/27 07:39:17;;;;;;;13.20;7.57;;;11.50;99.90;;;;;;5041211;28;20622;-64
2024/03/27 07:41:43;;;;;;;13.38;7.43;;;11.70;99.90;;;;;;5041194;28;20197;-65
2024/03/27 07:44:09;;;;;;;12.75;7.32;;;11.80;99.90;;;;;;5041363;28;20195;-67
2024/03/27 07:46:35;;;;;;;11.23;6.88;;;11.90;99.90;;;;;;5039691;28;20198;-67
2024/03/27 07:49:01;;;;;;;14.60;7.57;;;12.00;99.90;;;;;;5055494;28;20435;-65
2024/03/27 07:51:26;;;;;;;14.88;6.90;;;12.10;99.90;;;;;;5036765;28;20285;-67
2024/03/27 07:53:52;;;;;;;13.80;7.22;;;12.30;99.90;;;;;;5040967;28;20994;-66
2024/03/27 07:56:18;;;;;;;8.88;6.15;;;12.50;99.90;;;;;;5044062;28;20187;-65
2024/03/27 07:58:43;;;;;;;10.35;6.38;;;12.60;99.90;;;;;;5044084;28;20199;-65
2024/03/27 08:01:09;;;;;;;8.55;5.85;;;12.70;99.90;;;;;;5043463;28;20627;-66
2024/03/27 08:03:35;;;;;;;8.95;5.90;;;12.80;99.90;;;;;;5043005;28;20179;-66
2024/03/27 08:06:02;;;;;;;10.43;6.32;;;12.90;99.90;;;;;;5043568;28;20215;-65
2024/03/27 08:08:27;;;;;;;9.27;5.68;;;13.00;99.90;;;;;;5042286;28;20267;-67
2024/03/27 08:10:57;;;;;;;9.07;5.82;;;13.10;99.90;;;;;;5045125;28;21196;-70
2024/03/27 08:13:23;;;;;;;10.60;6.95;;;13.10;99.90;;;;;;5044978;28;20605;-67
2024/03/27 08:15:49;;;;;;;10.73;5.80;;;13.20;99.90;;;;;;5044623;28;20194;-69
2024/03/27 08:18:15;;;;;;;10.27;6.55;;;13.20;99.90;;;;;;5042478;28;20281;-69
2024/03/27 08:20:41;;;;;;;13.43;5.57;;;13.20;99.90;;;;;;5043209;28;20609;-72
2024/03/27 08:23:07;;;;;;;7.35;5.05;;;13.30;99.90;;;;;;5042779;28;20195;-75
2024/03/27 08:25:34;;;;;;;10.00;5.38;;;13.30;99.90;;;;;;5044279;28;20233;-69
2024/03/27 08:28:00;;;;;;;9.77;5.63;;;13.30;99.90;;;;;;5042796;28;20193;-65
2024/03/27 08:30:26;;;;;;;12.55;6.28;;;13.40;99.90;;;;;;5045087;28;20183;-66
2024/03/27 08:32:52;;;;;;;9.00;5.35;;;13.50;99.90;;;;;;5041748;28;20194;-71
2024/03/27 08:35:18;;;;;;;10.30;6.05;;;13.50;99.90;;;;;;5043835;28;20179;-66
2024/03/27 08:37:44;;;;;;;9.13;6.20;;;13.60;99.90;;;;;;5044146;28;20215;-67
2024/03/27 08:40:10;;;;;;;8.98;5.50;;;13.60;99.90;;;;;;5044517;28;20203;-67
2024/03/27 08:42:36;;;;;;;10.15;6.03;;;13.70;99.90;;;;;;5037133;28;20866;-65
2024/03/27 08:45:04;;;;;;;15.75;9.25;;;13.70;99.90;;;;;;5043067;28;20696;-69
2024/03/27 08:47:30;;;;;;;8.23;6.25;;;13.80;99.90;;;;;;5043965;28;20229;-65
2024/03/27 08:49:56;;;;;;;11.77;5.93;;;13.90;99.90;;;;;;5042856;28;20339;-68
2024/03/27 08:52:22;;;;;;;9.40;5.90;;;13.90;99.90;;;;;;5043102;28;20199;-67
2024/03/27 08:54:52;;;;;;;10.48;5.90;;;14.00;99.90;;;;;;5042631;28;20187;-67
2024/03/27 08:57:17;;;;;;;8.65;6.05;;;14.00;99.90;;;;;;5043748;28;20199;-67
2024/03/27 08:59:43;;;;;;;10.10;6.40;;;14.00;99.90;;;;;;5041604;28;20183;-65
2024/03/27 09:02:09;;;;;;;11.02;6.07;;;14.10;99.90;;;;;;5041116;28;20226;-67
2024/03/27 09:04:35;;;;;;;11.07;6.55;;;14.10;99.90;;;;;;5043604;28;20222;-66
2024/03/27 09:07:01;;;;;;;9.07;6.18;;;14.10;99.90;;;;;;5043742;28;20187;-65
2024/03/27 09:09:26;;;;;;;10.07;6.25;;;14.20;99.90;;;;;;5044360;28;20230;-70
2024/03/27 09:11:52;;;;;;;10.23;6.20;;;14.20;99.90;;;;;;5041982;28;20194;-67
2024/03/27 09:14:18;;;;;;;7.65;5.75;;;14.20;99.90;;;;;;5043644;28;20232;-68
2024/03/27 09:16:44;;;;;;;11.75;6.25;;;14.30;99.90;;;;;;5043109;28;20182;-69
2024/03/27 09:19:10;;;;;;;9.82;6.43;;;14.40;99.90;;;;;;5043098;28;20238;-69
2024/03/27 09:21:35;;;;;;;12.38;6.68;;;14.40;99.90;;;;;;5041594;28;20193;-66
2024/03/27 09:24:03;;;;;;;9.88;6.63;;;14.60;99.90;;;;;;5041642;28;20376;-66
2024/03/27 09:26:28;;;;;;;12.88;6.80;;;14.70;99.90;;;;;;5043234;28;20219;-69
2024/03/27 09:28:54;;;;;;;9.75;6.57;;;14.80;99.90;;;;;;5042239;28;20202;-67
2024/03/27 09:31:20;;;;;;;7.53;6.07;;;14.90;99.90;;;;;;5043025;28;20199;-69
2024/03/27 09:33:45;;;;;;;12.13;6.93;;;15.00;99.90;;;;;;5042386;28;20187;-68
2024/03/27 09:36:12;;;;;;;9.77;6.85;;;15.10;99.90;;;;;;5042899;28;20726;-65
2024/03/27 09:38:38;;;;;;;11.40;6.20;;;15.20;99.90;;;;;;5042985;28;20191;-68
2024/03/27 09:41:04;;;;;;;9.65;6.60;;;15.20;99.90;;;;;;5043376;28;20557;-68
2024/03/27 09:43:32;;;;;;;9.15;6.35;;;15.30;99.90;;;;;;5042427;28;20707;-70
2024/03/27 09:45:59;;;;;;;11.23;6.60;;;15.40;99.90;;;;;;5057548;28;20211;-67
2024/03/27 09:48:26;;;;;;;9.52;6.30;;;15.40;99.90;;;;;;5043021;28;20662;-69
2024/03/27 09:50:54;;;;;;;9.20;6.25;;;15.40;99.90;;;;;;5042866;28;20548;-66
2024/03/27 09:53:21;;;;;;;8.80;6.57;;;15.40;99.90;;;;;;5042642;28;20652;-66
2024/03/27 09:55:48;;;;;;;7.80;6.65;;;15.30;99.90;;;;;;5040583;28;20334;-64
2024/03/27 12:00:11;;;;;;;9.18;5.93;;;14.20;99.90;;;;;;5099377;27;20943;-70
2024/03/27 12:02:39;;;;;;;10.20;6.50;;;14.30;99.90;;;;;;5099143;28;20189;-66
2024/03/27 12:05:06;;;;;;;7.95;6.82;;;14.30;99.90;;;;;;5098080;28;20197;-66
2024/03/27 12:07:35;;;;;;;15.65;7.55;;;14.30;99.90;;;;;;5098431;28;20274;-66
2024/03/27 12:10:09;;;;;;;10.43;5.72;;;14.30;99.90;;;;;;5097997;28;20338;-68
2024/03/27 12:12:35;;;;;;;10.10;5.88;;;14.20;99.90;;;;;;5098225;28;20181;-67
2024/03/27 12:15:01;;;;;;;11.85;5.63;;;14.00;99.90;;;;;;5098404;28;20201;-67
2024/03/27 12:17:37;;;;;;;14.43;5.60;;;13.90;99.90;;;;;;5098716;28;20260;-67
2024/03/27 12:20:04;;;;;;;12.98;4.97;;;13.90;99.90;;;;;;5098244;28;20311;-67
2024/03/27 12:22:32;;;;;;;7.70;4.68;;;13.80;99.90;;;;;;5098279;28;20264;-66
2024/03/27 12:24:59;;;;;;;8.27;4.53;;;13.80;99.90;;;;;;5098287;28;20273;-67
2024/03/27 12:27:30;;;;;;;8.88;4.40;;;13.70;99.90;;;;;;5098097;28;20660;-70
2024/03/27 12:29:55;;;;;;;9.05;4.28;;;13.60;99.90;;;;;;5098261;28;20189;-65
2024/03/27 12:32:22;;;;;;;10.20;4.40;;;13.40;99.90;;;;;;5098545;28;20197;-65
2024/03/27 12:34:48;;;;;;;7.63;4.32;;;13.30;99.90;;;;;;5078889;28;20190;-66
2024/03/27 12:37:14;;;;;;;13.70;5.00;;;13.20;99.90;;;;;;5097289;28;20568;-66
2024/03/27 12:39:41;;;;;;;10.10;4.68;;;13.20;99.90;;;;;;5079380;28;20208;-66
2024/03/27 12:42:08;;;;;;;10.48;4.90;;;13.20;99.90;;;;;;5098407;28;20291;-63
2024/03/27 12:44:34;;;;;;;8.10;4.00;;;13.10;99.90;;;;;;5097833;28;20276;-64
2024/03/27 12:47:00;;;;;;;15.10;4.68;;;13.00;99.90;;;;;;5097610;28;20689;-68
2024/03/27 12:49:26;;;;;;;9.57;4.20;;;13.00;99.90;;;;;;5098258;28;20208;-66
2024/03/27 12:51:52;;;;;;;11.40;4.40;;;12.90;99.90;;;;;;5098062;28;20292;-67
2024/03/27 12:54:17;;;;;;;13.60;4.93;;;12.90;99.90;;;;;;5097188;28;20275;-65
2024/03/27 12:56:43;;;;;;;6.95;4.47;;;12.80;99.90;;;;;;5097750;28;20189;-69
2024/03/27 12:59:09;;;;;;;8.52;4.63;;;12.70;99.90;;;;;;5097177;28;20228;-66
2024/03/27 13:01:37;;;;;;;7.95;4.60;;;12.70;99.90;;;;;;5097340;28;20344;-64
2024/03/27 13:04:03;;;;;;;8.80;4.80;;;12.70;99.90;;;;;;5097743;28;20189;-65
2024/03/27 13:06:28;;;;;;;7.13;4.30;;;12.60;99.90;;;;;;5097722;28;20185;-66
2024/03/27 13:08:54;;;;;;;7.43;4.03;;;12.70;99.90;;;;;;5097943;28;20201;-68
2024/03/27 13:11:20;;;;;;;8.55;4.13;;;12.60;99.90;;;;;;5085049;28;20196;-68
2024/03/27 13:13:46;;;;;;;9.90;4.00;;;12.60;99.90;;;;;;5099544;28;20641;-68
2024/03/27 13:16:13;;;;;;;11.05;4.43;;;12.60;99.90;;;;;;5065927;28;20200;-68
2024/03/27 13:18:38;;;;;;;10.23;5.00;;;12.60;99.90;;;;;;5083525;28;20699;-70
2024/03/27 13:21:07;;;;;;;10.40;4.40;;;12.60;99.90;;;;;;5083191;28;20198;-69
2024/03/27 13:23:38;;;;;;;6.90;3.88;;;12.60;99.90;;;;;;5083989;28;20224;-77
2024/03/27 13:26:10;;;;;;;8.35;4.90;;;12.70;99.90;;;;;;5064600;28;20197;-74
2024/03/27 13:28:36;;;;;;;7.88;4.30;;;12.80;99.90;;;;;;5083375;28;20679;-74
2024/03/27 13:31:04;;;;;;;10.73;4.80;;;12.80;99.90;;;;;;5083658;28;20189;-74
2024/03/27 13:33:33;;;;;;;10.40;4.95;;;12.70;99.90;;;;;;5082998;28;20174;-75
2024/03/27 13:35:59;;;;;;;10.55;4.78;;;12.70;99.90;;;;;;5082613;28;20194;-73
2024/03/27 13:38:25;;;;;;;11.98;5.25;;;12.80;99.90;;;;;;5083142;28;20197;-72
2024/03/27 13:40:51;;;;;;;8.50;5.57;;;12.70;99.90;;;;;;5065036;28;20243;-73
2024/03/27 13:43:18;;;;;;;8.32;5.47;;;12.70;99.90;;;;;;5083532;28;20602;-73
2024/03/27 13:45:43;;;;;;;8.10;5.70;;;12.70;99.90;;;;;;5082351;28;20281;-72
2024/03/27 13:48:09;;;;;;;9.77;6.20;;;12.80;99.90;;;;;;5082696;28;20289;-73
2024/03/27 13:50:35;;;;;;;12.73;6.53;;;12.80;99.90;;;;;;5082940;28;20204;-75
2024/03/27 13:53:01;;;;;;;8.27;6.20;;;12.80;99.90;;;;;;5083535;28;21342;-73
2024/03/27 13:55:26;;;;;;;10.18;6.35;;;12.80;99.90;;;;;;5082912;28;20224;-73
2024/03/27 13:57:52;;;;;;;8.50;6.82;;;12.80;99.90;;;;;;5082986;28;20455;-73
2024/03/27 14:00:18;;;;;;;9.23;6.72;;;12.80;99.90;;;;;;5082515;28;20265;-71
2024/03/27 14:02:45;;;;;;;15.07;7.30;;;12.70;99.90;;;;;;5082819;28;20194;-74
2024/03/27 14:05:11;;;;;;;10.10;6.78;;;12.70;99.90;;;;;;5064795;28;20185;-75
2024/03/27 14:07:36;;;;;;;9.98;6.70;;;12.70;99.90;;;;;;5082481;28;20677;-74
2024/03/27 14:10:03;;;;;;;8.20;6.30;;;12.60;99.90;;;;;;5082483;28;20196;-73
2024/03/27 14:12:29;;;;;;;11.32;6.38;;;12.60;99.90;;;;;;5082374;28;20221;-73
2024/03/27 14:14:56;;;;;;;12.88;7.35;;;12.60;99.90;;;;;;5098435;28;20251;-70
2024/03/27 14:17:22;;;;;;;9.70;7.65;;;12.60;99.90;;;;;;5082771;28;20194;-72
2024/03/27 14:19:48;;;;;;;11.80;8.18;;;12.60;99.90;;;;;;5082562;28;20201;-75
2024/03/27 14:22:13;;;;;;;11.90;8.15;;;12.60;99.90;;;;;;5096316;28;20208;-78
2024/03/27 14:24:39;;;;;;;12.77;8.18;;;12.60;99.90;;;;;;5064828;28;20563;-80
2024/03/27 14:27:06;;;;;;;10.27;8.18;;;12.50;99.90;;;;;;5083111;28;20197;-77
2024/03/27 14:29:32;;;;;;;10.60;7.97;;;12.50;99.90;;;;;;5083023;28;20653;-76
2024/03/27 14:31:58;;;;;;;12.70;8.85;;;12.40;99.90;;;;;;5084628;28;20194;-79
2024/03/27 14:34:26;;;;;;;11.90;9.18;;;12.30;99.90;;;;;;5064618;28;20654;-77
2024/03/27 14:36:52;;;;;;;25.40;19.10;;;12.30;99.90;;;;;;5099874;28;20229;-76
2024/03/27 14:39:18;;;;;;;11.93;9.02;;;12.20;99.90;;;;;;5083260;28;20221;-80